Alpine Trader — 9HVW9 — position and weather

sailwx.info

Track history (hours):
 
Tides and Currents Weather Stations Pressure Air Temp Water Temp Dewpoint Dewpoint Depression Visibility Wind Speed Wind Dir Waves Ship Positions

Alpine Trader

Last reported at 2015-May-02 09:16 UTC. Time now 2015-May-29 16:23 UTC.
Position N 02°00' E 102°13'.
Warning: this ship's position is 27 days out of date.

Length 190 m; draft 10.8 m.

Type: Cargo ship. MMSI: 249874000.

Date/timePositionNaut miles runAvg speedWind from/ knotsBaromVisibWave heightAir tempDewpointWater temp
2015-May-02 09:16N 02°00' E 102°13'810.9
2015-May-02 08:33N 01°56' E 102°19'1211.9
2015-May-02 07:32N 01°51' E 102°30'1612.6
2015-May-02 06:14N 01°44' E 102°45'7610.6
2015-May-01 23:09N 01°13' E 103°53'4 7.4
2015-May-01 22:33N 01°16' E 103°56'1 1.1
2015-May-01 21:14N 01°17' E 103°58'0 0.0
2015-May-01 20:20N 01°17' E 103°58'0 0.0
2015-May-01 19:32N 01°17' E 103°58'0 0.0
2015-May-01 18:32N 01°17' E 103°58'0 0.0
2015-May-01 17:20N 01°17' E 103°58'0 0.0
2015-May-01 16:32N 01°17' E 103°58'0 0.1
2015-May-01 14:29N 01°17' E 103°57'0 0.0
2015-May-01 13:20N 01°17' E 103°57'0 0.0
2015-May-01 11:32N 01°17' E 103°57'1 1.1
2015-May-01 10:33N 01°16' E 103°58'4 4.3
2015-May-01 09:33N 01°16' E 104°02'5 5.0
2015-May-01 08:33N 01°17' E 104°07'  
2015-Apr-23 19:17N 31°00' E 126°44'  
Track history (hours):
 
Tides and Currents Weather Stations Pressure Air Temp Water Temp Dewpoint Dewpoint Depression Visibility Wind Speed Wind Dir Waves Ship Positions

Alpine Trader

Last reported at 2015-May-02 09:16 UTC. Time now 2015-May-29 16:23 UTC.
Position N 02°00' E 102°13'.
Warning: this ship's position is 27 days out of date.

Length 190 m; draft 10.8 m.

Type: Cargo ship. MMSI: 249874000.

Date/timePositionNaut miles runAvg speedWind from/ knotsBaromVisibWave heightAir tempDewpointWater temp
2015-May-02 09:16N 02°00' E 102°13'810.9
2015-May-02 08:33N 01°56' E 102°19'1211.9
2015-May-02 07:32N 01°51' E 102°30'1612.6
2015-May-02 06:14N 01°44' E 102°45'7610.6
2015-May-01 23:09N 01°13' E 103°53'4 7.4
2015-May-01 22:33N 01°16' E 103°56'1 1.1
2015-May-01 21:14N 01°17' E 103°58'0 0.0
2015-May-01 20:20N 01°17' E 103°58'0 0.0
2015-May-01 19:32N 01°17' E 103°58'0 0.0
2015-May-01 18:32N 01°17' E 103°58'0 0.0
2015-May-01 17:20N 01°17' E 103°58'0 0.0
2015-May-01 16:32N 01°17' E 103°58'0 0.1
2015-May-01 14:29N 01°17' E 103°57'0 0.0
2015-May-01 13:20N 01°17' E 103°57'0 0.0
2015-May-01 11:32N 01°17' E 103°57'1 1.1
2015-May-01 10:33N 01°16' E 103°58'4 4.3
2015-May-01 09:33N 01°16' E 104°02'5 5.0
2015-May-01 08:33N 01°17' E 104°07'  
2015-Apr-23 19:17N 31°00' E 126°44'  

Dump ship's entire track history